createdAt,value
2017-10-18T00:00:50.658Z,9.10
2017-10-18T00:03:18.110Z,9.10
2017-10-18T00:05:45.576Z,9.10
2017-10-18T00:08:13.035Z,9.10
2017-10-18T00:10:40.510Z,9.00
2017-10-18T00:13:08.758Z,8.90
2017-10-18T00:15:36.225Z,8.90
2017-10-18T00:18:03.774Z,8.90
2017-10-18T00:20:31.242Z,8.90
2017-10-18T00:22:58.799Z,9.00
2017-10-18T00:25:26.266Z,9.30
2017-10-18T00:27:53.730Z,9.30
2017-10-18T00:30:21.976Z,9.20
2017-10-18T00:32:49.551Z,9.20
2017-10-18T00:35:17.012Z,9.10
2017-10-18T00:37:44.548Z,9.10
2017-10-18T00:40:12.023Z,9.20
2017-10-18T00:42:39.491Z,9.40
2017-10-18T00:45:07.026Z,9.50
2017-10-18T00:47:34.490Z,9.60
2017-10-18T00:50:01.949Z,9.60
2017-10-18T00:52:29.418Z,9.50
2017-10-18T00:54:56.871Z,9.50
2017-10-18T00:57:31.208Z,9.40
2017-10-18T00:59:58.665Z,9.30
2017-10-18T01:02:26.887Z,9.10
2017-10-18T01:04:54.345Z,9.10
2017-10-18T01:07:21.814Z,8.90
2017-10-18T01:09:49.266Z,9.00
2017-10-18T01:12:16.738Z,8.90
2017-10-18T01:14:44.189Z,8.80
2017-10-18T01:17:11.654Z,8.90
2017-10-18T01:19:39.114Z,8.90
2017-10-18T01:22:07.361Z,9.00
2017-10-18T01:24:34.813Z,9.00
2017-10-18T01:27:02.283Z,9.10
2017-10-18T01:29:29.740Z,9.10
2017-10-18T01:31:57.301Z,9.10
2017-10-18T01:34:24.855Z,9.20
2017-10-18T01:36:52.321Z,9.20
2017-10-18T01:39:19.777Z,9.10
2017-10-18T01:41:47.249Z,9.10
2017-10-18T01:44:14.706Z,9.00
2017-10-18T01:46:42.942Z,8.90
2017-10-18T01:49:10.403Z,8.90
2017-10-18T01:51:37.857Z,8.80
2017-10-18T01:54:05.321Z,8.80
2017-10-18T01:56:32.897Z,8.70
2017-10-18T01:59:00.354Z,8.60
2017-10-18T02:01:27.823Z,8.40
2017-10-18T02:03:56.064Z,8.40
2017-10-18T02:06:23.512Z,8.40
2017-10-18T02:08:50.979Z,8.50
2017-10-18T02:11:18.442Z,8.40
2017-10-18T02:13:45.920Z,8.30
2017-10-18T02:16:13.380Z,8.20
2017-10-18T02:18:40.842Z,8.10
2017-10-18T02:21:08.376Z,8.00
2017-10-18T02:23:35.839Z,7.90
2017-10-18T02:26:03.297Z,7.80
2017-10-18T02:28:30.778Z,7.70
2017-10-18T02:30:59.004Z,8.00
2017-10-18T02:33:26.474Z,7.90
2017-10-18T02:35:54.039Z,8.00
2017-10-18T02:38:21.597Z,7.90
2017-10-18T02:40:49.060Z,7.80
2017-10-18T02:43:16.526Z,8.00
2017-10-18T02:45:44.066Z,8.00
2017-10-18T02:48:11.539Z,7.90
2017-10-18T02:50:38.995Z,7.80
2017-10-18T02:53:06.542Z,7.80
2017-10-18T02:55:34.009Z,7.60
2017-10-18T02:58:01.554Z,7.50
2017-10-18T03:00:29.022Z,7.70
2017-10-18T03:02:56.478Z,7.70
2017-10-18T03:05:23.951Z,7.60
2017-10-18T03:07:52.179Z,7.50
2017-10-18T03:10:19.641Z,7.50
2017-10-18T03:12:47.113Z,7.40
2017-10-18T03:15:14.583Z,7.40
2017-10-18T03:17:42.038Z,7.30
2017-10-18T03:20:09.498Z,7.20
2017-10-18T03:22:36.960Z,7.20
2017-10-18T03:25:05.201Z,7.20
2017-10-18T03:27:32.645Z,7.20
2017-10-18T03:30:00.130Z,7.20
2017-10-18T03:32:27.580Z,7.30
2017-10-18T03:34:55.150Z,7.30
2017-10-18T03:37:22.610Z,7.20
2017-10-18T03:39:50.077Z,7.10
2017-10-18T03:42:17.529Z,7.10
2017-10-18T03:44:45.003Z,7.10
2017-10-18T03:47:13.240Z,7.20
2017-10-18T03:49:40.705Z,7.10
2017-10-18T03:52:08.260Z,7.10
2017-10-18T03:54:35.721Z,7.10
2017-10-18T03:57:03.202Z,7.20
2017-10-18T03:59:30.661Z,7.20
2017-10-18T04:01:58.888Z,7.30
2017-10-18T04:04:26.341Z,7.30
2017-10-18T04:06:53.826Z,7.10
2017-10-18T04:09:21.282Z,7.10
2017-10-18T04:11:48.746Z,7.10
2017-10-18T04:14:16.202Z,7.00
2017-10-18T04:16:43.763Z,7.00
2017-10-18T04:19:11.231Z,7.00
2017-10-18T04:21:38.698Z,7.10
2017-10-18T04:24:06.161Z,7.10
2017-10-18T04:26:34.393Z,7.00
2017-10-18T04:29:01.841Z,6.90
2017-10-18T04:31:29.327Z,7.00
2017-10-18T04:33:56.877Z,7.00
2017-10-18T04:36:24.341Z,6.90
2017-10-18T04:38:51.802Z,6.90
2017-10-18T04:41:19.266Z,6.80
2017-10-18T04:43:47.486Z,6.80
2017-10-18T04:46:14.958Z,6.70
2017-10-18T04:48:42.427Z,6.80
2017-10-18T04:51:09.909Z,6.80
2017-10-18T04:53:38.161Z,6.70
2017-10-18T04:56:05.618Z,6.70
2017-10-18T04:58:33.083Z,6.60
2017-10-18T05:01:01.353Z,6.50
2017-10-18T05:03:28.813Z,6.50
2017-10-18T05:05:56.273Z,6.50
2017-10-18T05:08:24.510Z,6.60
2017-10-18T05:10:51.966Z,6.60
2017-10-18T05:13:19.434Z,6.50
2017-10-18T05:15:46.914Z,6.50
2017-10-18T05:18:14.412Z,6.50
2017-10-18T05:20:41.833Z,6.60
2017-10-18T05:23:09.297Z,6.70
2017-10-18T05:25:36.754Z,6.60
2017-10-18T05:28:04.289Z,6.60
2017-10-18T05:30:31.746Z,6.60
2017-10-18T05:32:59.205Z,6.50
2017-10-18T05:35:26.666Z,6.40
2017-10-18T05:37:54.142Z,6.40
2017-10-18T05:40:21.689Z,6.40
2017-10-18T05:42:49.154Z,6.30
2017-10-18T05:45:16.601Z,6.20
2017-10-18T05:47:44.072Z,6.20
2017-10-18T05:50:11.533Z,6.20
2017-10-18T05:52:39.776Z,6.10
2017-10-18T05:55:07.237Z,6.00
2017-10-18T05:57:34.699Z,6.00
2017-10-18T06:00:02.179Z,6.00
2017-10-18T06:02:30.402Z,5.90
2017-10-18T06:04:57.875Z,5.90
2017-10-18T06:07:25.325Z,5.90
2017-10-18T06:09:52.786Z,5.90
2017-10-18T06:12:20.241Z,5.90
2017-10-18T06:14:47.698Z,6.10
2017-10-18T06:17:15.165Z,6.00
2017-10-18T06:19:42.617Z,5.90
2017-10-18T06:22:10.075Z,6.10
2017-10-18T06:24:37.538Z,6.10
2017-10-18T06:27:04.990Z,6.10
2017-10-18T06:29:32.449Z,6.10
2017-10-18T06:31:59.905Z,6.10
2017-10-18T06:34:27.374Z,6.20
2017-10-18T06:36:55.708Z,6.30
2017-10-18T06:39:23.169Z,6.40
2017-10-18T06:41:50.621Z,6.50
2017-10-18T06:44:18.091Z,6.60
2017-10-18T06:46:45.545Z,6.70
2017-10-18T06:49:13.014Z,6.70
2017-10-18T06:51:40.470Z,6.70
2017-10-18T06:54:07.959Z,6.80
2017-10-18T06:56:36.183Z,7.10
2017-10-18T06:59:03.637Z,7.10
2017-10-18T07:01:31.334Z,7.10
2017-10-18T07:03:58.802Z,7.20
2017-10-18T07:06:26.258Z,7.40
2017-10-18T07:08:53.710Z,7.50
2017-10-18T07:11:21.261Z,7.70
2017-10-18T07:13:48.726Z,7.80
2017-10-18T07:16:16.195Z,8.00
2017-10-18T07:18:43.653Z,8.20
2017-10-18T07:21:11.115Z,8.40
2017-10-18T07:23:39.343Z,8.70
2017-10-18T07:26:06.805Z,8.70
2017-10-18T07:28:34.399Z,8.80
2017-10-18T07:31:01.861Z,8.90
2017-10-18T07:33:30.091Z,9.30
2017-10-18T07:35:57.561Z,9.30
2017-10-18T07:38:25.028Z,9.50
2017-10-18T07:40:52.576Z,9.40
2017-10-18T07:43:20.039Z,9.40
2017-10-18T07:45:47.502Z,9.30
2017-10-18T07:48:14.956Z,9.30
2017-10-18T07:50:42.421Z,9.30
2017-10-18T07:53:09.886Z,9.20
2017-10-18T07:55:37.350Z,9.30
2017-10-18T07:58:05.582Z,9.30
2017-10-18T08:00:33.064Z,9.30
2017-10-18T08:03:00.546Z,9.40
2017-10-18T08:05:28.773Z,9.60
2017-10-18T08:07:56.230Z,9.50
2017-10-18T08:10:23.681Z,9.70
2017-10-18T08:12:51.156Z,9.90
2017-10-18T08:15:18.626Z,10.10
2017-10-18T08:17:46.091Z,10.20
2017-10-18T08:20:13.546Z,10.40
2017-10-18T08:22:41.010Z,10.50
2017-10-18T08:25:09.234Z,10.90
2017-10-18T08:27:36.701Z,10.90
2017-10-18T08:30:04.156Z,11.00
2017-10-18T08:32:31.632Z,11.10
2017-10-18T08:34:59.097Z,11.30
2017-10-18T08:37:26.738Z,11.50
2017-10-18T08:39:54.301Z,11.60
2017-10-18T08:42:21.778Z,11.70
2017-10-18T08:44:49.238Z,11.90
2017-10-18T08:47:16.701Z,12.00
2017-10-18T08:49:44.921Z,12.00
2017-10-18T08:52:12.425Z,12.00
2017-10-18T08:54:39.887Z,12.10
2017-10-18T08:57:07.346Z,12.20
2017-10-18T08:59:34.801Z,12.40
2017-10-18T09:02:03.051Z,12.90
2017-10-18T09:04:30.513Z,12.90
2017-10-18T09:06:57.974Z,13.10
2017-10-18T09:09:25.440Z,13.10
2017-10-18T09:11:52.983Z,13.30
2017-10-18T09:14:20.460Z,13.40
2017-10-18T09:16:47.917Z,13.60
2017-10-18T09:19:15.381Z,13.80
2017-10-18T09:21:43.638Z,14.40
2017-10-18T09:24:11.118Z,14.30
2017-10-18T09:26:38.583Z,14.50
2017-10-18T09:29:06.797Z,14.70
2017-10-18T09:31:34.249Z,14.70
2017-10-18T09:34:01.722Z,14.90
2017-10-18T09:36:29.174Z,15.00
2017-10-18T09:38:56.658Z,15.10
2017-10-18T09:41:24.120Z,15.20
2017-10-18T09:43:51.565Z,15.20
2017-10-18T09:46:19.032Z,15.20
2017-10-18T09:48:46.491Z,15.40
2017-10-18T09:51:13.959Z,15.50
2017-10-18T09:53:42.182Z,15.60
2017-10-18T09:56:10.348Z,15.60
2017-10-18T09:58:37.834Z,15.70
2017-10-18T10:01:05.301Z,15.80
2017-10-18T10:03:32.754Z,16.00
2017-10-18T10:06:00.219Z,16.20
2017-10-18T10:08:27.672Z,16.30
2017-10-18T10:10:55.139Z,16.40
2017-10-18T10:13:22.603Z,16.50
2017-10-18T10:15:50.854Z,16.80
2017-10-18T10:18:18.310Z,16.80
2017-10-18T10:20:45.776Z,17.00
2017-10-18T10:23:13.231Z,17.00
2017-10-18T10:25:40.773Z,17.00
2017-10-18T10:28:08.236Z,17.30
2017-10-18T10:30:35.698Z,17.60
2017-10-18T10:33:03.934Z,17.40
2017-10-18T10:35:31.393Z,17.40
2017-10-18T10:37:58.861Z,17.60
2017-10-18T10:40:26.340Z,17.70
2017-10-18T10:42:53.818Z,17.90
2017-10-18T10:45:22.079Z,18.20
2017-10-18T10:47:49.545Z,18.20
2017-10-18T10:50:17.774Z,18.30
2017-10-18T10:52:45.251Z,18.30
2017-10-18T10:55:12.823Z,18.30
2017-10-18T10:57:40.289Z,18.20
2017-10-18T11:00:07.742Z,18.20
2017-10-18T11:02:35.206Z,18.30
2017-10-18T11:05:02.657Z,18.30
2017-10-18T11:07:30.898Z,18.40
2017-10-18T11:09:58.374Z,18.40
2017-10-18T11:12:25.847Z,18.50
2017-10-18T11:14:53.306Z,18.60
2017-10-18T11:17:21.537Z,18.50
2017-10-18T11:19:49.020Z,18.50
2017-10-18T11:22:16.495Z,18.60
2017-10-18T11:24:43.946Z,18.50
2017-10-18T11:27:11.485Z,18.60
2017-10-18T11:29:38.941Z,18.70
2017-10-18T11:32:06.406Z,18.70
2017-10-18T11:34:33.860Z,18.70
2017-10-18T11:37:01.330Z,18.80
2017-10-18T11:39:28.786Z,18.80
2017-10-18T11:41:56.458Z,19.00
2017-10-18T11:44:24.679Z,19.00
2017-10-18T11:46:52.126Z,19.00
2017-10-18T11:49:19.629Z,19.10
2017-10-18T11:51:47.079Z,19.20
2017-10-18T11:54:14.550Z,19.20
2017-10-18T11:56:42.002Z,19.30
2017-10-18T11:59:09.458Z,19.50
2017-10-18T12:01:36.915Z,19.60
2017-10-18T12:04:04.386Z,19.50
2017-10-18T12:06:31.833Z,19.70
2017-10-18T12:08:59.298Z,19.90
2017-10-18T12:11:27.545Z,19.80
2017-10-18T12:13:55.005Z,19.70
2017-10-18T12:16:22.461Z,19.90
2017-10-18T12:18:49.942Z,19.90
2017-10-18T12:21:17.386Z,19.90
2017-10-18T12:23:44.841Z,20.10
2017-10-18T12:26:12.315Z,20.20
2017-10-18T12:28:39.773Z,20.10
2017-10-18T12:31:07.232Z,20.20
2017-10-18T12:33:35.450Z,20.40
2017-10-18T12:36:02.942Z,20.30
2017-10-18T12:38:30.489Z,20.40
2017-10-18T12:40:57.953Z,20.50
2017-10-18T12:43:25.404Z,20.50
2017-10-18T12:45:52.863Z,20.50
2017-10-18T12:48:20.417Z,20.70
2017-10-18T12:50:47.882Z,20.80
2017-10-18T12:53:15.333Z,20.80
2017-10-18T12:55:42.788Z,20.80
2017-10-18T12:58:10.255Z,21.00
2017-10-18T13:00:37.697Z,21.00
2017-10-18T13:03:05.147Z,21.00
2017-10-18T13:05:32.618Z,21.10
2017-10-18T13:08:00.066Z,21.10
2017-10-18T13:10:27.528Z,21.10
2017-10-18T13:12:55.091Z,21.00
2017-10-18T13:15:22.645Z,21.10
2017-10-18T13:17:50.098Z,21.20
2017-10-18T13:20:17.549Z,21.30
2017-10-18T13:22:45.001Z,21.40
2017-10-18T13:25:12.454Z,21.40
2017-10-18T13:27:39.945Z,21.30
2017-10-18T13:30:07.389Z,21.40
2017-10-18T13:32:34.954Z,21.40
2017-10-18T13:35:02.406Z,21.40
2017-10-18T13:37:29.859Z,21.30
2017-10-18T13:39:57.317Z,21.20
2017-10-18T13:42:24.765Z,21.10
2017-10-18T13:44:52.215Z,21.40
2017-10-18T13:47:19.675Z,21.40
2017-10-18T13:49:47.153Z,21.30
2017-10-18T13:52:14.609Z,21.50
2017-10-18T13:54:42.874Z,21.40
2017-10-18T13:57:10.338Z,21.20
2017-10-18T13:59:37.781Z,21.20
2017-10-18T14:02:05.346Z,21.20
2017-10-18T14:04:32.793Z,21.30
2017-10-18T14:07:00.264Z,21.30
2017-10-18T14:09:27.718Z,21.30
2017-10-18T14:11:55.202Z,21.20
2017-10-18T14:14:23.417Z,21.40
2017-10-18T14:16:50.861Z,21.30
2017-10-18T14:19:18.317Z,21.50
2017-10-18T14:21:45.817Z,21.60
2017-10-18T14:24:13.277Z,21.60
2017-10-18T14:26:40.722Z,21.40
2017-10-18T14:29:08.297Z,21.40
2017-10-18T14:31:35.747Z,21.40
2017-10-18T14:34:03.199Z,21.30
2017-10-18T14:36:30.653Z,21.20
2017-10-18T14:38:58.128Z,21.20
2017-10-18T14:41:25.587Z,21.10
2017-10-18T14:43:53.806Z,21.20
2017-10-18T14:46:21.251Z,21.20
2017-10-18T14:48:49.471Z,21.20
2017-10-18T14:51:16.913Z,21.20
2017-10-18T14:53:44.373Z,21.10
2017-10-18T14:56:11.821Z,21.00
2017-10-18T14:58:39.271Z,20.90
2017-10-18T15:01:06.766Z,20.90
2017-10-18T15:03:34.222Z,20.80
2017-10-18T15:06:01.686Z,20.70
2017-10-18T15:08:29.155Z,20.60
2017-10-18T15:10:57.365Z,20.40
2017-10-18T15:13:24.813Z,20.40
2017-10-18T15:15:52.258Z,20.40
2017-10-18T15:18:20.473Z,20.20
2017-10-18T15:20:47.922Z,20.20
2017-10-18T15:23:15.381Z,20.20
2017-10-18T15:25:42.832Z,20.10
2017-10-18T15:28:10.318Z,20.10
2017-10-18T15:30:37.770Z,20.00
2017-10-18T15:33:05.335Z,19.80
2017-10-18T15:35:32.790Z,19.60
2017-10-18T15:38:00.249Z,19.50
2017-10-18T15:40:27.697Z,19.40
2017-10-18T15:42:55.150Z,19.20
2017-10-18T15:45:22.610Z,19.10
2017-10-18T15:47:50.054Z,19.00
2017-10-18T15:50:17.509Z,18.90
2017-10-18T15:52:44.977Z,18.70
2017-10-18T15:55:12.534Z,18.60
2017-10-18T15:57:40.094Z,18.50
2017-10-18T16:00:07.557Z,18.40
2017-10-18T16:02:35.111Z,18.40
2017-10-18T16:05:02.573Z,18.30
2017-10-18T16:07:30.022Z,18.20
2017-10-18T16:09:57.582Z,18.00
2017-10-18T16:12:25.143Z,17.90
2017-10-18T16:14:52.611Z,17.70
2017-10-18T16:17:20.171Z,17.60
2017-10-18T16:19:47.726Z,17.50
2017-10-18T16:22:15.179Z,17.40
2017-10-18T16:24:42.738Z,17.40
2017-10-18T16:27:10.211Z,17.30
2017-10-18T16:29:37.745Z,17.30
2017-10-18T16:32:05.208Z,17.20
2017-10-18T16:34:32.654Z,17.10
2017-10-18T16:37:00.116Z,17.00
2017-10-18T16:39:27.561Z,16.90
2017-10-18T16:41:55.022Z,16.80
2017-10-18T16:44:22.494Z,16.80
2017-10-18T16:46:49.958Z,16.70
2017-10-18T16:49:17.422Z,16.70
2017-10-18T16:51:46.378Z,16.50
2017-10-18T16:54:13.833Z,16.50
2017-10-18T16:56:41.405Z,16.20
2017-10-18T16:59:08.857Z,16.10
2017-10-18T17:01:36.322Z,15.90
2017-10-18T17:04:03.773Z,15.70
2017-10-18T17:06:31.339Z,15.60
2017-10-18T17:08:58.798Z,15.40
2017-10-18T17:11:26.276Z,15.20
2017-10-18T17:13:53.818Z,15.00
2017-10-18T17:16:21.274Z,15.00
2017-10-18T17:18:48.822Z,14.90
2017-10-18T17:21:16.514Z,14.80
2017-10-18T17:23:44.757Z,14.60
2017-10-18T17:26:12.215Z,14.50
2017-10-18T17:28:39.678Z,14.40
2017-10-18T17:31:07.138Z,14.20
2017-10-18T17:33:34.593Z,14.20
2017-10-18T17:36:02.041Z,14.10
2017-10-18T17:38:29.502Z,14.10
2017-10-18T17:40:56.984Z,14.10
2017-10-18T17:43:24.414Z,14.00
2017-10-18T17:45:51.868Z,13.90
2017-10-18T17:48:19.325Z,13.80
2017-10-18T17:50:46.778Z,13.70
2017-10-18T17:53:14.339Z,13.60
2017-10-18T17:55:41.808Z,13.50
2017-10-18T17:58:09.370Z,13.50
2017-10-18T18:00:36.825Z,13.70
2017-10-18T18:03:04.379Z,13.60
2017-10-18T18:05:31.842Z,13.50
2017-10-18T18:07:59.310Z,13.30
2017-10-18T18:10:26.782Z,13.20
2017-10-18T18:12:55.006Z,13.00
2017-10-18T18:15:22.457Z,13.00
2017-10-18T18:17:49.922Z,13.00
2017-10-18T18:20:17.373Z,13.00
2017-10-18T18:22:44.993Z,12.90
2017-10-18T18:25:12.444Z,12.90
2017-10-18T18:27:41.645Z,12.80
2017-10-18T18:30:09.105Z,12.80
2017-10-18T18:32:36.558Z,12.80
2017-10-18T18:35:04.795Z,12.60
2017-10-18T18:37:32.250Z,12.60
2017-10-18T18:39:59.719Z,12.50
2017-10-18T18:42:28.670Z,12.30
2017-10-18T18:44:56.133Z,12.30
2017-10-18T18:47:24.529Z,12.30
2017-10-18T18:49:52.007Z,12.30
2017-10-18T18:52:19.562Z,12.20
2017-10-18T18:54:47.988Z,12.10
2017-10-18T18:57:15.484Z,12.00
2017-10-18T18:59:42.945Z,11.90
2017-10-18T19:02:10.393Z,11.80
2017-10-18T19:04:37.857Z,11.70
2017-10-18T19:07:05.410Z,11.60
2017-10-18T19:09:32.878Z,11.60
2017-10-18T19:12:00.334Z,11.50
2017-10-18T19:14:27.801Z,11.50
2017-10-18T19:16:55.344Z,11.40
2017-10-18T19:19:22.806Z,11.40
2017-10-18T19:21:50.258Z,11.30
2017-10-18T19:24:17.733Z,11.30
2017-10-18T19:26:45.181Z,11.20
2017-10-18T19:29:12.733Z,11.20
2017-10-18T19:31:40.195Z,11.20
2017-10-18T19:34:07.649Z,11.10
2017-10-18T19:36:35.118Z,11.10
2017-10-18T19:39:03.342Z,11.10
2017-10-18T19:41:31.031Z,11.10
2017-10-18T19:43:58.491Z,11.00
2017-10-18T19:46:25.954Z,11.00
2017-10-18T19:48:54.926Z,11.10
2017-10-18T19:51:22.488Z,11.10
2017-10-18T19:53:49.963Z,11.10
2017-10-18T19:56:17.418Z,11.20
2017-10-18T19:58:44.887Z,11.10
2017-10-18T20:01:12.350Z,11.00
2017-10-18T20:03:39.802Z,10.90
2017-10-18T20:06:07.263Z,10.90
2017-10-18T20:08:34.713Z,10.90
2017-10-18T20:11:02.177Z,10.90
2017-10-18T20:13:30.405Z,11.30
2017-10-18T20:15:57.878Z,11.20
2017-10-18T20:18:25.330Z,11.30
2017-10-18T20:20:52.793Z,11.30
2017-10-18T20:23:20.264Z,11.10
2017-10-18T20:25:47.737Z,11.10
2017-10-18T20:28:15.965Z,10.90
2017-10-18T20:30:43.426Z,10.90
2017-10-18T20:33:10.897Z,10.80
2017-10-18T20:35:38.355Z,10.70
2017-10-18T20:38:05.831Z,10.60
2017-10-18T20:40:33.287Z,10.50
2017-10-18T20:43:01.523Z,10.40
2017-10-18T20:45:28.974Z,10.40
2017-10-18T20:47:56.445Z,10.30
2017-10-18T20:50:23.906Z,10.30
2017-10-18T20:52:51.373Z,10.40
2017-10-18T20:55:18.835Z,10.40
2017-10-18T20:57:46.409Z,10.20
2017-10-18T21:00:14.643Z,10.10
2017-10-18T21:02:42.113Z,10.00
2017-10-18T21:05:09.571Z,10.00
2017-10-18T21:07:37.033Z,9.90
2017-10-18T21:10:04.493Z,10.00
2017-10-18T21:12:31.966Z,10.00
2017-10-18T21:14:59.408Z,9.90
2017-10-18T21:17:28.380Z,9.80
2017-10-18T21:19:56.001Z,9.90
2017-10-18T21:22:23.505Z,9.90
2017-10-18T21:24:50.980Z,10.00
2017-10-18T21:27:18.438Z,10.00
2017-10-18T21:29:45.898Z,9.90
2017-10-18T21:32:13.360Z,10.00
2017-10-18T21:34:40.828Z,10.00
2017-10-18T21:37:09.047Z,10.10
2017-10-18T21:39:36.504Z,10.10
2017-10-18T21:42:03.963Z,10.20
2017-10-18T21:44:31.546Z,10.20
2017-10-18T21:46:59.014Z,10.10
2017-10-18T21:49:27.248Z,9.80
2017-10-18T21:51:54.706Z,9.80
2017-10-18T21:54:22.183Z,9.70
2017-10-18T21:56:49.640Z,9.70
2017-10-18T22:02:35.457Z,10.00
2017-10-18T22:05:03.019Z,10.10
2017-10-18T22:07:30.475Z,10.00
2017-10-18T22:09:57.948Z,10.00
2017-10-18T22:12:26.178Z,10.10
2017-10-18T22:14:53.650Z,10.10
2017-10-18T22:17:21.109Z,10.30
2017-10-18T22:19:48.582Z,10.40
2017-10-18T22:22:16.827Z,10.30
2017-10-18T22:24:44.297Z,10.20
2017-10-18T22:27:11.757Z,10.20
2017-10-18T22:29:39.231Z,10.10
2017-10-18T22:32:07.453Z,9.30
2017-10-18T22:34:34.927Z,9.30
2017-10-18T22:37:02.395Z,9.10
2017-10-18T22:39:29.957Z,8.90
2017-10-18T22:41:57.413Z,8.80
2017-10-18T22:44:24.875Z,8.80
2017-10-18T22:46:52.334Z,8.70
2017-10-18T22:49:19.888Z,8.80
2017-10-18T22:51:47.353Z,8.80
2017-10-18T22:54:14.806Z,8.80
2017-10-18T22:56:42.287Z,8.80
2017-10-18T22:59:10.535Z,9.00
2017-10-18T23:01:37.997Z,8.90
2017-10-18T23:04:05.457Z,8.90
2017-10-18T23:06:32.923Z,8.90
2017-10-18T23:09:01.156Z,8.80
2017-10-18T23:11:28.624Z,8.80
2017-10-18T23:13:56.102Z,9.00
2017-10-18T23:16:23.664Z,9.00
2017-10-18T23:18:51.205Z,9.10
2017-10-18T23:21:18.687Z,9.00
2017-10-18T23:23:46.944Z,8.90
2017-10-18T23:26:14.406Z,8.90
2017-10-18T23:28:41.971Z,8.90
2017-10-18T23:31:09.523Z,8.90
2017-10-18T23:33:36.981Z,8.90
2017-10-18T23:36:04.452Z,8.80
2017-10-18T23:38:32.685Z,8.80
2017-10-18T23:41:00.142Z,8.70
2017-10-18T23:43:27.598Z,8.60
2017-10-18T23:45:55.053Z,8.50
2017-10-18T23:48:22.516Z,8.50
2017-10-18T23:50:50.089Z,8.50
2017-10-18T23:53:17.650Z,8.50
2017-10-18T23:55:45.118Z,8.50
2017-10-18T23:58:12.577Z,8.50
